Time;durP1;ratioP1;P1;durP2;ratioP2;P2;SDS_P1;SDS_P2;PMS_P1;PMS_P2;Temp;Humidity;BMP_temperature;BMP_pressure;BME280_temperature;BME280_humidity;BME280_pressure;Samples;Min_cycle;Max_cycle;Signal;HPM_P1;HPM_P2
2022/01/27 00:07:30;;;;;;;31.45;10.35;;;4.00;99.90;;;;;;10253569;28;84344;-44
2022/01/27 00:12:30;;;;;;;28.27;9.88;;;4.10;99.90;;;;;;10248254;28;84032;-48
2022/01/27 00:17:32;;;;;;;29.35;10.57;;;4.10;99.90;;;;;;10246399;28;84049;-47
2022/01/27 00:22:33;;;;;;;37.75;11.63;;;4.00;99.90;;;;;;10246922;28;84919;-44
2022/01/27 00:27:34;;;;;;;22.67;9.10;;;4.00;99.90;;;;;;10245447;28;86759;-44
2022/01/27 00:32:35;;;;;;;31.52;10.65;;;4.00;99.90;;;;;;10245239;28;87041;-44
2022/01/27 00:37:36;;;;;;;35.47;11.00;;;4.10;99.90;;;;;;10246553;28;84861;-45
2022/01/27 00:42:37;;;;;;;29.30;10.23;;;4.10;99.90;;;;;;10245702;28;86836;-44
2022/01/27 00:47:38;;;;;;;32.13;11.32;;;4.10;99.90;;;;;;10230396;28;85961;-46
2022/01/27 00:52:44;;;;;;;35.88;11.82;;;4.10;99.90;;;;;;10246875;28;84845;-46
2022/01/27 00:58:03;;;;;;;31.83;11.57;;;4.30;99.90;;;;;;10246535;28;84959;-46
2022/01/27 01:03:12;;;;;;;35.80;12.43;;;4.20;99.90;;;;;;10244345;28;85977;-44
2022/01/27 01:34:24;;;;;;;29.85;9.52;;;4.20;99.90;;;;;;10250629;28;86394;-44
2022/01/27 01:39:31;;;;;;;31.60;11.43;;;4.20;99.90;;;;;;10246776;28;84864;-43
2022/01/27 01:44:32;;;;;;;28.63;10.88;;;4.20;99.90;;;;;;10269351;28;84157;-43
2022/01/27 01:49:33;;;;;;;32.05;10.30;;;4.20;99.90;;;;;;10289687;28;86740;-43
2022/01/27 01:54:34;;;;;;;26.50;9.23;;;4.30;99.90;;;;;;10290014;28;85045;-44
2022/01/27 01:59:38;;;;;;;31.50;10.48;;;4.20;99.90;;;;;;10250692;28;84934;-42
2022/01/27 02:04:40;;;;;;;33.13;10.75;;;4.20;99.90;;;;;;10250859;28;85246;-43
2022/01/27 02:10:05;;;;;;;29.90;11.30;;;4.30;99.90;;;;;;10249408;28;84997;-44
2022/01/27 02:20:30;;;;;;;25.58;9.57;;;4.30;99.90;;;;;;10253284;28;84078;-44
2022/01/27 02:25:30;;;;;;;25.02;8.93;;;4.30;92.90;;;;;;10250021;28;84290;-48
2022/01/27 02:30:32;;;;;;;27.35;9.05;;;4.20;93.50;;;;;;10248576;28;84993;-46
2022/01/27 02:35:34;;;;;;;24.38;8.80;;;4.30;99.90;;;;;;10267956;28;85165;-43
2022/01/27 02:40:49;;;;;;;25.35;9.35;;;4.20;94.80;;;;;;10290918;28;84942;-43
2022/01/27 02:46:06;;;;;;;22.55;8.90;;;4.20;92.70;;;;;;10289640;28;84106;-45
2022/01/27 02:51:07;;;;;;;22.63;9.32;;;4.20;90.50;;;;;;10289811;28;84867;-44
2022/01/27 02:56:08;;;;;;;26.52;8.75;;;4.30;83.30;;;;;;10289354;28;84654;-47
2022/01/27 03:01:10;;;;;;;29.92;8.55;;;4.20;89.00;;;;;;10271306;28;84440;-45
2022/01/27 03:06:11;;;;;;;24.58;9.50;;;4.20;94.00;;;;;;10287588;28;84370;-47
2022/01/27 03:11:15;;;;;;;25.00;9.13;;;4.20;89.50;;;;;;10269288;22;85229;-48
2022/01/27 03:16:16;;;;;;;23.67;8.25;;;4.20;77.30;;;;;;10247275;28;83997;-51
2022/01/27 03:21:16;;;;;;;21.63;8.13;;;4.30;92.00;;;;;;10248416;28;84042;-47
2022/01/27 03:26:17;;;;;;;25.52;9.40;;;4.30;84.90;;;;;;10247217;28;84879;-49
2022/01/27 03:31:19;;;;;;;23.05;8.82;;;4.30;78.20;;;;;;10247928;28;86813;-43
2022/01/27 03:36:20;;;;;;;22.95;8.73;;;4.30;73.10;;;;;;10287401;28;84692;-45
2022/01/27 03:41:22;;;;;;;22.92;8.68;;;4.30;84.70;;;;;;10270972;28;84412;-47
2022/01/27 03:46:23;;;;;;;30.08;9.88;;;4.40;69.30;;;;;;10287103;28;84803;-50
2022/01/27 03:51:24;;;;;;;24.10;9.32;;;4.40;56.80;;;;;;10269091;28;84877;-45
2022/01/27 03:56:25;;;;;;;25.02;9.52;;;4.30;68.10;;;;;;10246813;28;84072;-47
2022/01/27 04:01:26;;;;;;;29.58;9.90;;;4.40;73.10;;;;;;10246552;28;84913;-51
2022/01/27 04:06:36;;;;;;;21.70;8.55;;;4.40;58.90;;;;;;10246350;28;84899;-45
2022/01/27 04:11:39;;;;;;;26.25;9.85;;;4.40;67.80;;;;;;10244934;28;87054;-49
2022/01/27 04:16:40;;;;;;;15.25;7.47;;;4.40;73.70;;;;;;10263499;28;84345;-44
2022/01/27 04:21:41;;;;;;;25.23;9.05;;;4.40;66.10;;;;;;10287087;28;84441;-46
2022/01/27 04:26:45;;;;;;;20.67;7.80;;;4.50;61.00;;;;;;10284840;28;85934;-48
2022/01/27 04:31:47;;;;;;;24.77;9.13;;;4.40;52.20;;;;;;10267211;28;86019;-47
2022/01/27 04:36:48;;;;;;;14.50;6.32;;;4.50;60.30;;;;;;10284047;28;85059;-51
2022/01/27 04:41:59;;;;;;;19.48;7.45;;;4.50;41.30;;;;;;10285959;28;84915;-45
2022/01/27 04:52:00;;;;;;;24.10;8.43;;;4.50;68.30;;;;;;10285589;28;84447;-46
2022/01/27 04:57:03;;;;;;;21.85;7.60;;;4.60;75.10;;;;;;10285470;28;84870;-48
2022/01/27 05:02:10;;;;;;;22.00;8.40;;;4.70;43.70;;;;;;10285820;28;84978;-47
2022/01/27 05:07:11;;;;;;;19.75;8.40;;;4.70;44.50;;;;;;10272018;28;86090;-47
2022/01/27 05:12:19;;;;;;;25.00;7.63;;;4.70;55.10;;;;;;10271568;28;84165;-49
2022/01/27 05:17:20;;;;;;;22.17;8.77;;;4.60;81.20;;;;;;10250860;28;84954;-50
2022/01/27 05:22:21;;;;;;;22.17;8.23;;;4.70;67.20;;;;;;10250957;28;84284;-47
2022/01/27 05:27:21;;;;;;;21.90;8.40;;;4.60;88.20;;;;;;10248380;28;85163;-50
2022/01/27 05:32:22;;;;;;;16.73;7.88;;;4.50;92.60;;;;;;10251170;28;84849;-46
2022/01/27 05:37:22;;;;;;;22.48;8.00;;;4.70;99.90;;;;;;10249450;28;84219;-46
2022/01/27 05:42:23;;;;;;;20.83;8.68;;;4.70;94.40;;;;;;10249871;28;91399;-52
2022/01/27 05:47:24;;;;;;;22.38;8.02;;;4.80;87.70;;;;;;10245565;28;84281;-48
2022/01/27 05:52:24;;;;;;;23.05;7.75;;;4.80;95.40;;;;;;10244702;28;85021;-48
2022/01/27 05:57:25;;;;;;;18.58;8.23;;;5.00;72.60;;;;;;10251519;28;84844;-48
2022/01/27 06:02:26;;;;;;;25.75;10.05;;;5.10;66.40;;;;;;10273384;28;84534;-47
2022/01/27 06:07:26;;;;;;;25.50;8.63;;;5.10;52.70;;;;;;10248912;28;84923;-51
2022/01/27 06:12:27;;;;;;;23.02;8.45;;;5.00;77.20;;;;;;10248913;28;84753;-49
2022/01/27 06:17:29;;;;;;;20.00;6.80;;;5.20;54.90;;;;;;10227699;28;85752;-49
2022/01/27 06:22:29;;;;;;;15.30;6.80;;;5.10;59.00;;;;;;10248913;28;84176;-50
2022/01/27 06:27:30;;;;;;;26.33;9.82;;;5.10;79.90;;;;;;10243128;28;96498;-48
2022/01/27 06:32:31;;;;;;;16.45;7.32;;;5.10;99.90;;;;;;10248587;28;84951;-51
2022/01/27 06:37:32;;;;;;;20.30;7.65;;;5.20;99.90;;;;;;10244281;28;84734;-52
2022/01/27 06:42:33;;;;;;;25.83;8.20;;;5.10;99.90;;;;;;10246732;28;84978;-45
2022/01/27 06:47:34;;;;;;;21.88;8.00;;;5.20;99.90;;;;;;10246065;28;84817;-60
2022/01/27 06:52:35;;;;;;;24.70;9.30;;;5.30;99.90;;;;;;10246907;28;85111;-64
2022/01/27 06:57:35;;;;;;;29.20;8.32;;;5.20;99.90;;;;;;10246649;28;84701;-62
2022/01/27 07:02:36;;;;;;;26.30;8.48;;;5.00;99.90;;;;;;10242442;28;87484;-65
2022/01/27 07:07:36;;;;;;;25.45;7.45;;;5.00;99.90;;;;;;10244581;28;84923;-47
2022/01/27 07:12:41;;;;;;;21.27;8.27;;;5.00;99.90;;;;;;10245841;28;84930;-50
2022/01/27 07:17:42;;;;;;;19.85;8.10;;;5.00;99.90;;;;;;10245666;28;84216;-51
2022/01/27 07:22:42;;;;;;;21.70;7.47;;;5.00;99.90;;;;;;10247252;28;84920;-48
2022/01/27 07:27:44;;;;;;;17.63;6.05;;;5.00;99.90;;;;;;10244372;28;86105;-49
2022/01/27 07:32:44;;;;;;;19.48;7.30;;;5.10;99.90;;;;;;10246572;28;84926;-47
2022/01/27 07:37:46;;;;;;;20.48;8.18;;;5.10;99.90;;;;;;10243534;28;84968;-64
2022/01/27 07:42:47;;;;;;;17.05;7.90;;;5.00;99.90;;;;;;10246386;28;85780;-60
2022/01/27 07:47:48;;;;;;;20.00;7.28;;;5.10;99.90;;;;;;10248766;28;84118;-62
2022/01/27 07:52:48;;;;;;;20.35;7.20;;;5.10;99.90;;;;;;10246644;28;84148;-59
2022/01/27 07:57:49;;;;;;;21.35;8.00;;;5.20;99.90;;;;;;10244985;28;87212;-64
2022/01/27 08:02:50;;;;;;;16.85;7.78;;;5.30;99.90;;;;;;10247009;28;84182;-57
2022/01/27 08:07:50;;;;;;;22.73;8.50;;;5.30;99.90;;;;;;10245850;28;84147;-57
2022/01/27 08:12:51;;;;;;;25.25;8.25;;;5.30;99.90;;;;;;10239396;28;84278;-61
2022/01/27 08:17:51;;;;;;;14.95;6.10;;;5.30;99.90;;;;;;10245709;28;84144;-57
2022/01/27 08:22:54;;;;;;;14.85;6.63;;;5.40;99.90;;;;;;10241631;28;85361;-66
2022/01/27 08:27:58;;;;;;;14.52;6.28;;;5.30;99.90;;;;;;10245269;28;84955;-58
2022/01/27 08:33:04;;;;;;;12.95;6.70;;;5.20;99.90;;;;;;10244957;28;86005;-59
2022/01/27 08:38:05;;;;;;;13.63;6.97;;;5.30;99.90;;;;;;10243358;28;84035;-58
2022/01/27 08:43:08;;;;;;;17.27;6.15;;;5.30;99.90;;;;;;10244605;28;84076;-55
2022/01/27 08:48:10;;;;;;;11.00;5.78;;;5.30;99.90;;;;;;10261256;28;85514;-53
2022/01/27 08:53:10;;;;;;;12.63;5.72;;;5.40;99.90;;;;;;10266150;28;84214;-59
2022/01/27 08:58:12;;;;;;;14.50;5.95;;;5.50;99.90;;;;;;10244806;28;84119;-56
2022/01/27 09:03:13;;;;;;;13.18;5.40;;;5.50;99.90;;;;;;10245875;28;84994;-59
2022/01/27 09:08:13;;;;;;;11.43;5.28;;;5.60;99.90;;;;;;10268678;23;84368;-64
2022/01/27 09:13:15;;;;;;;12.52;6.35;;;5.60;99.90;;;;;;10280719;28;85993;-54
2022/01/27 09:18:17;;;;;;;16.08;4.72;;;5.60;99.90;;;;;;10282973;28;84285;-52
2022/01/27 09:23:18;;;;;;;13.13;5.00;;;5.70;99.90;;;;;;10284831;28;84185;-55
2022/01/27 09:28:19;;;;;;;15.23;6.10;;;5.60;99.90;;;;;;10284009;28;84852;-53
2022/01/27 09:33:19;;;;;;;11.27;4.35;;;5.70;99.90;;;;;;10283121;28;86093;-58
2022/01/27 09:38:20;;;;;;;12.73;5.07;;;5.80;99.90;;;;;;10283990;28;85026;-53
2022/01/27 09:43:21;;;;;;;9.15;4.40;;;5.90;99.90;;;;;;10282930;28;84506;-67
2022/01/27 09:48:25;;;;;;;13.45;5.68;;;6.00;99.90;;;;;;10285654;28;85799;-65
2022/01/27 09:53:26;;;;;;;12.77;4.97;;;5.90;99.90;;;;;;10312834;28;86318;-64
2022/01/27 09:58:27;;;;;;;12.68;4.95;;;6.00;99.90;;;;;;10331545;28;84206;-65
2022/01/27 10:03:30;;;;;;;14.73;6.25;;;6.00;99.90;;;;;;10330536;28;87134;-62
2022/01/27 10:08:30;;;;;;;11.57;4.88;;;6.00;99.90;;;;;;10312687;28;84905;-64
2022/01/27 10:13:39;;;;;;;10.95;4.72;;;6.10;99.90;;;;;;10291812;28;84926;-62
2022/01/27 10:18:40;;;;;;;13.30;4.95;;;6.20;99.90;;;;;;10288749;28;84332;-61
2022/01/27 10:23:41;;;;;;;15.52;6.30;;;6.30;99.90;;;;;;10290290;28;84376;-63
2022/01/27 10:28:56;;;;;;;12.05;4.95;;;6.40;99.90;;;;;;10287835;28;84456;-65
2022/01/27 10:34:03;;;;;;;13.90;6.15;;;6.50;99.90;;;;;;10286544;28;86429;-58
2022/01/27 10:39:10;;;;;;;11.20;5.40;;;6.50;99.90;;;;;;10286241;28;86283;-63
2022/01/27 10:44:17;;;;;;;13.70;5.63;;;6.60;99.90;;;;;;10290064;28;84817;-64
2022/01/27 10:49:28;;;;;;;8.30;4.25;;;6.60;99.90;;;;;;10315954;28;83989;-65
2022/01/27 10:54:39;;;;;;;11.95;5.57;;;6.60;99.90;;;;;;10328797;28;86051;-66
2022/01/27 10:59:41;;;;;;;9.73;5.05;;;6.60;99.90;;;;;;10319781;28;84276;-61
2022/01/27 11:04:43;;;;;;;10.75;5.50;;;6.60;99.90;;;;;;10287410;28;87511;-64
2022/01/27 11:09:44;;;;;;;9.93;4.32;;;6.70;99.90;;;;;;10287743;28;84129;-62
2022/01/27 11:14:50;;;;;;;9.18;4.60;;;6.70;99.90;;;;;;10289535;28;84929;-57
2022/01/27 11:30:19;;;;;;;12.02;4.75;;;6.80;99.90;;;;;;10287335;28;86070;-56
2022/01/27 11:35:24;;;;;;;7.40;4.00;;;6.90;99.90;;;;;;10286351;28;85097;-59
2022/01/27 11:40:43;;;;;;;7.60;4.13;;;6.90;99.90;;;;;;10287785;28;84850;-63
2022/01/27 11:45:45;;;;;;;7.47;3.63;;;6.90;99.90;;;;;;10281641;28;84249;-58
2022/01/27 11:50:50;;;;;;;9.68;4.38;;;7.00;99.90;;;;;;10290812;28;84953;-56
2022/01/27 11:55:51;;;;;;;7.38;4.13;;;7.00;99.90;;;;;;10287390;28;84218;-54
2022/01/27 12:01:03;;;;;;;8.13;3.97;;;7.10;99.90;;;;;;10287892;28;84107;-56
2022/01/27 12:06:16;;;;;;;7.82;3.08;;;7.10;99.90;;;;;;10287089;28;84841;-52
2022/01/27 12:11:46;;;;;;;9.60;4.25;;;7.20;99.90;;;;;;10284278;28;84466;-53
2022/01/27 12:17:20;;;;;;;6.60;3.67;;;7.10;99.90;;;;;;10284469;28;85745;-66
2022/01/27 12:22:25;;;;;;;4.63;2.45;;;7.20;99.90;;;;;;10283887;28;85169;-57
2022/01/27 12:27:27;;;;;;;5.65;2.95;;;7.20;99.90;;;;;;10287633;28;84780;-63
2022/01/27 12:32:30;;;;;;;7.30;3.80;;;7.30;99.90;;;;;;10286857;28;84871;-62
2022/01/27 12:37:42;;;;;;;5.65;2.38;;;7.30;99.90;;;;;;10282878;28;84304;-63
2022/01/27 12:42:55;;;;;;;6.55;3.80;;;7.40;99.90;;;;;;10286877;28;84878;-64
2022/01/27 12:47:59;;;;;;;7.13;3.03;;;7.40;99.90;;;;;;10301236;28;84840;-64
2022/01/27 12:53:03;;;;;;;6.65;3.33;;;7.40;99.90;;;;;;10327969;28;84094;-64
2022/01/27 12:58:11;;;;;;;8.45;3.63;;;7.60;99.90;;;;;;10327472;28;85034;-60
2022/01/27 13:03:12;;;;;;;6.82;3.67;;;7.60;99.90;;;;;;10293323;28;85958;-63
2022/01/27 13:08:17;;;;;;;8.55;4.53;;;7.70;99.90;;;;;;10283744;28;86080;-53
2022/01/27 13:13:25;;;;;;;6.82;4.43;;;7.80;99.90;;;;;;10287049;28;84793;-55
2022/01/27 13:18:36;;;;;;;8.32;4.47;;;7.80;99.90;;;;;;10279427;28;84105;-55
2022/01/27 13:23:42;;;;;;;9.80;4.22;;;7.80;99.90;;;;;;10285039;28;84325;-59
2022/01/27 13:28:45;;;;;;;7.40;4.10;;;7.90;99.90;;;;;;10290151;28;84898;-64
2022/01/27 13:33:47;;;;;;;9.65;4.72;;;8.00;99.90;;;;;;10292342;28;84132;-65
2022/01/27 13:44:07;;;;;;;11.63;5.30;;;8.20;99.90;;;;;;10293561;28;84071;-60
2022/01/27 13:49:13;;;;;;;8.30;4.18;;;8.30;99.90;;;;;;10292504;28;84932;-62
2022/01/27 13:54:14;;;;;;;11.32;4.82;;;8.30;99.90;;;;;;10292165;28;84543;-62
2022/01/27 13:59:17;;;;;;;10.23;5.95;;;8.30;99.90;;;;;;10290854;28;84427;-63
2022/01/27 14:04:18;;;;;;;9.10;4.50;;;8.30;99.90;;;;;;10294064;28;84566;-64
2022/01/27 14:09:21;;;;;;;14.45;5.15;;;8.30;99.90;;;;;;10286227;28;85038;-64
2022/01/27 14:14:49;;;;;;;9.05;4.93;;;8.30;99.90;;;;;;10291489;28;84748;-63
2022/01/27 14:19:50;;;;;;;10.20;5.28;;;8.20;99.90;;;;;;10292487;28;84112;-60
2022/01/27 14:25:06;;;;;;;9.15;5.10;;;8.20;99.90;;;;;;10291408;28;84189;-64
2022/01/27 14:30:13;;;;;;;6.97;4.28;;;8.30;99.90;;;;;;10289157;28;85321;-60
2022/01/27 14:35:15;;;;;;;7.80;4.78;;;8.30;99.90;;;;;;10293020;28;84764;-62
2022/01/27 14:40:19;;;;;;;9.38;3.65;;;8.30;99.90;;;;;;10290683;28;84089;-60
2022/01/27 14:45:20;;;;;;;6.97;4.30;;;8.20;99.90;;;;;;10289679;28;84761;-60
2022/01/27 14:50:21;;;;;;;7.68;4.55;;;8.30;99.90;;;;;;10291739;28;84827;-60
2022/01/27 14:55:23;;;;;;;9.18;4.47;;;8.30;99.90;;;;;;10290791;28;84239;-62
2022/01/27 15:00:24;;;;;;;7.13;4.25;;;8.40;99.90;;;;;;10288553;28;84833;-62
2022/01/27 15:05:25;;;;;;;8.88;4.25;;;8.50;99.90;;;;;;10290533;28;84942;-59
2022/01/27 15:10:26;;;;;;;9.38;4.22;;;8.50;99.90;;;;;;10282981;22;84572;-63
2022/01/27 15:20:45;;;;;;;7.75;4.53;;;8.60;99.90;;;;;;10249788;28;84777;-56
2022/01/27 15:25:50;;;;;;;9.85;4.50;;;8.60;99.90;;;;;;10248266;28;86040;-59
2022/01/27 15:30:53;;;;;;;8.82;4.00;;;8.60;99.90;;;;;;10248177;28;84093;-61
2022/01/27 15:35:55;;;;;;;11.18;4.10;;;8.60;99.90;;;;;;10247808;28;84132;-59
2022/01/27 15:40:56;;;;;;;6.07;3.08;;;8.50;99.90;;;;;;10247335;28;85132;-62
2022/01/27 15:45:57;;;;;;;5.85;3.55;;;8.50;99.90;;;;;;10248847;28;84597;-59
2022/01/27 15:50:58;;;;;;;7.75;3.15;;;8.50;99.90;;;;;;10237704;28;84951;-51
2022/01/27 15:55:59;;;;;;;7.40;3.17;;;8.50;99.90;;;;;;10246203;28;84083;-48
2022/01/27 16:00:59;;;;;;;6.15;2.78;;;8.50;99.90;;;;;;10243001;28;84377;-48
2022/01/27 16:06:00;;;;;;;5.68;3.08;;;8.40;99.90;;;;;;10242917;28;84814;-46
2022/01/27 16:11:01;;;;;;;3.63;1.52;;;8.40;99.90;;;;;;10243795;28;84321;-45
2022/01/27 16:16:03;;;;;;;5.93;2.00;;;8.20;99.90;;;;;;10239121;28;86989;-47
2022/01/27 16:21:04;;;;;;;2.25;1.20;;;7.90;99.90;;;;;;10238941;28;84734;-51
2022/01/27 16:26:06;;;;;;;4.95;1.50;;;7.90;99.90;;;;;;10235687;28;84301;-47
2022/01/27 16:31:07;;;;;;;3.70;0.70;;;7.90;99.90;;;;;;10243123;28;84327;-49
2022/01/27 16:36:08;;;;;;;1.58;0.75;;;7.80;99.90;;;;;;10240145;28;84155;-51
2022/01/27 16:41:09;;;;;;;1.67;0.77;;;7.70;99.90;;;;;;10250579;28;84709;-50
2022/01/27 16:46:11;;;;;;;2.17;0.73;;;7.70;99.90;;;;;;10286127;28;84634;-49
2022/01/27 16:51:12;;;;;;;2.83;0.75;;;7.60;99.90;;;;;;10274784;28;84267;-48
2022/01/27 16:56:13;;;;;;;1.30;0.60;;;7.40;99.90;;;;;;10244680;28;84758;-48
2022/01/27 17:01:15;;;;;;;0.95;0.43;;;7.30;99.90;;;;;;10250491;28;84985;-49
2022/01/27 17:06:16;;;;;;;4.63;0.60;;;7.30;99.90;;;;;;10236149;28;84194;-49
2022/01/27 17:11:16;;;;;;;4.10;0.73;;;7.20;99.90;;;;;;10234897;28;85023;-50
2022/01/27 17:16:19;;;;;;;2.88;0.65;;;7.20;99.90;;;;;;10243146;28;84983;-47
2022/01/27 17:21:20;;;;;;;4.43;0.82;;;7.20;99.90;;;;;;10242342;28;87408;-49
2022/01/27 17:26:20;;;;;;;3.53;0.90;;;7.20;99.90;;;;;;10244219;28;84885;-52
2022/01/27 17:31:21;;;;;;;1.27;0.70;;;7.20;99.90;;;;;;10243995;28;84008;-51
2022/01/27 17:36:22;;;;;;;3.35;0.98;;;7.20;99.90;;;;;;10243635;28;85004;-51
2022/01/27 17:41:27;;;;;;;3.88;1.10;;;7.10;99.90;;;;;;10238900;28;87449;-48
2022/01/27 17:46:28;;;;;;;3.15;1.25;;;7.10;99.90;;;;;;10243437;28;84703;-52
2022/01/27 17:51:28;;;;;;;4.65;1.20;;;7.10;99.90;;;;;;10242739;28;84445;-53
2022/01/27 17:56:29;;;;;;;2.45;0.98;;;7.10;99.90;;;;;;10244847;28;84253;-53
2022/01/27 18:01:31;;;;;;;6.80;1.35;;;7.10;99.90;;;;;;10245413;28;84036;-53
2022/01/27 18:06:32;;;;;;;3.88;1.38;;;7.10;99.90;;;;;;10243044;28;84840;-48
2022/01/27 18:11:36;;;;;;;3.85;1.20;;;7.10;99.90;;;;;;10245581;28;85550;-50
2022/01/27 18:16:39;;;;;;;6.25;1.15;;;7.10;99.90;;;;;;10248076;28;85795;-51
2022/01/27 18:21:40;;;;;;;6.15;1.45;;;7.20;99.90;;;;;;10248538;28;85004;-51
2022/01/27 18:26:41;;;;;;;5.32;1.45;;;7.10;99.90;;;;;;10250134;28;85269;-53
2022/01/27 18:31:42;;;;;;;3.55;0.95;;;7.10;99.90;;;;;;10253451;28;85041;-50
2022/01/27 18:36:43;;;;;;;5.70;1.38;;;7.10;99.90;;;;;;10257074;28;84237;-48
2022/01/27 18:41:44;;;;;;;8.32;1.60;;;7.10;99.90;;;;;;10249138;28;84519;-49
2022/01/27 18:46:45;;;;;;;4.20;0.90;;;7.20;99.90;;;;;;10260826;28;84366;-51
2022/01/27 18:51:47;;;;;;;1.08;0.60;;;7.10;99.90;;;;;;10257908;28;84957;-51
2022/01/27 18:56:47;;;;;;;1.38;0.73;;;7.20;99.90;;;;;;10257286;28;84171;-55
2022/01/27 19:01:48;;;;;;;5.18;1.00;;;7.20;99.90;;;;;;10251906;28;84752;-50
2022/01/27 19:06:49;;;;;;;11.93;0.90;;;7.20;99.90;;;;;;10248547;28;86723;-54
2022/01/27 19:11:50;;;;;;;4.43;1.08;;;7.20;99.90;;;;;;10255754;28;84241;-52
2022/01/27 19:16:50;;;;;;;6.32;2.00;;;7.20;99.90;;;;;;10239128;28;84889;-52
2022/01/27 19:21:51;;;;;;;3.22;0.85;;;7.20;99.90;;;;;;10243350;28;84183;-48
2022/01/27 19:26:56;;;;;;;6.57;0.70;;;7.10;99.90;;;;;;10245850;28;84996;-52
2022/01/27 19:32:05;;;;;;;6.97;1.00;;;7.10;99.90;;;;;;10242587;28;85552;-52
2022/01/27 19:37:05;;;;;;;9.57;1.23;;;7.10;99.90;;;;;;10249998;28;84674;-52
2022/01/27 19:42:07;;;;;;;6.53;0.82;;;7.10;99.90;;;;;;10249677;28;84899;-49
2022/01/27 19:47:08;;;;;;;1.30;0.45;;;7.10;99.90;;;;;;10252828;28;84290;-48
2022/01/27 19:52:10;;;;;;;2.08;0.65;;;7.20;99.90;;;;;;10254764;28;85974;-51
2022/01/27 19:57:11;;;;;;;3.53;1.13;;;7.20;99.90;;;;;;10240608;28;84929;-50
2022/01/27 20:02:15;;;;;;;5.25;1.05;;;7.20;99.90;;;;;;10233356;28;84869;-48
2022/01/27 20:07:17;;;;;;;5.40;0.90;;;7.20;99.90;;;;;;10241074;28;84781;-55
2022/01/27 20:12:18;;;;;;;4.90;0.73;;;7.20;99.20;;;;;;10239490;28;84217;-53
2022/01/27 20:17:19;;;;;;;2.25;0.75;;;7.10;4.90;;;;;;10245990;28;84916;-48
2022/01/27 20:22:19;;;;;;;5.05;1.00;;;7.10;23.00;;;;;;10245641;28;84909;-53
2022/01/27 20:27:20;;;;;;;4.90;0.57;;;7.10;99.90;;;;;;10245652;28;84973;-49
2022/01/27 20:32:21;;;;;;;2.65;1.25;;;6.90;99.90;;;;;;10244050;28;84055;-49
2022/01/27 20:37:22;;;;;;;3.00;0.82;;;6.90;99.90;;;;;;10243543;28;85095;-50
2022/01/27 20:42:22;;;;;;;3.45;0.80;;;6.80;99.90;;;;;;10245287;28;84329;-48
2022/01/27 20:47:23;;;;;;;5.47;0.68;;;6.70;99.90;;;;;;10234437;28;84965;-53
2022/01/27 20:52:23;;;;;;;5.20;0.50;;;6.70;99.90;;;;;;10228239;28;84382;-53
2022/01/27 20:57:24;;;;;;;5.40;1.02;;;6.60;99.90;;;;;;10245400;28;84987;-50
2022/01/27 21:02:25;;;;;;;6.05;1.33;;;6.40;99.90;;;;;;10244376;28;84230;-53
2022/01/27 21:07:25;;;;;;;3.22;0.50;;;6.40;99.90;;;;;;10239357;28;84968;-53
2022/01/27 21:12:26;;;;;;;2.17;0.50;;;6.30;99.90;;;;;;10260337;23;84920;-60
2022/01/27 21:17:26;;;;;;;5.15;0.90;;;6.20;99.90;;;;;;10238234;28;87075;-58
2022/01/27 21:22:27;;;;;;;8.27;0.88;;;6.10;99.90;;;;;;10212825;28;84951;-58
2022/01/27 21:27:28;;;;;;;0.85;0.22;;;6.00;94.40;;;;;;10208954;28;84175;-58
2022/01/27 21:32:29;;;;;;;6.03;0.38;;;6.00;99.90;;;;;;10229554;28;84907;-58
2022/01/27 21:37:30;;;;;;;6.32;0.70;;;5.90;99.90;;;;;;10224817;28;84839;-58
2022/01/27 21:42:32;;;;;;;1.02;0.60;;;5.90;99.90;;;;;;10219366;28;86015;-59
2022/01/27 21:47:36;;;;;;;2.85;0.75;;;5.90;99.90;;;;;;10226378;28;86063;-59
2022/01/27 21:52:37;;;;;;;3.00;0.40;;;6.00;99.90;;;;;;10199820;28;86855;-59
2022/01/27 21:57:39;;;;;;;2.00;0.75;;;6.00;99.90;;;;;;10214041;28;84214;-58
2022/01/27 22:02:40;;;;;;;4.15;0.73;;;6.00;94.80;;;;;;10221692;28;84401;-58
2022/01/27 22:07:41;;;;;;;1.40;0.68;;;6.00;99.90;;;;;;10231908;28;84287;-58
2022/01/27 22:12:42;;;;;;;2.30;0.60;;;6.00;99.90;;;;;;10234030;28;84989;-56
2022/01/27 22:17:43;;;;;;;4.15;0.52;;;5.90;99.90;;;;;;10229318;28;85091;-59
2022/01/27 22:22:44;;;;;;;0.63;0.50;;;5.80;99.90;;;;;;10226769;28;84157;-57
2022/01/27 22:27:45;;;;;;;5.20;0.57;;;5.70;99.90;;;;;;10210489;28;84152;-56
2022/01/27 22:32:46;;;;;;;4.05;0.88;;;5.70;99.90;;;;;;10208594;28;84350;-58
2022/01/27 22:37:47;;;;;;;5.95;0.95;;;5.70;99.90;;;;;;10209378;28;84899;-59
2022/01/27 22:42:48;;;;;;;2.85;0.50;;;5.70;99.90;;;;;;10208955;28;84099;-59
2022/01/27 22:47:49;;;;;;;8.90;0.50;;;5.70;92.60;;;;;;10208465;28;84207;-59
2022/01/27 22:52:51;;;;;;;7.07;0.85;;;5.70;93.80;;;;;;10207826;28;86879;-59
2022/01/27 22:57:52;;;;;;;4.68;0.80;;;5.60;99.90;;;;;;10207996;28;84438;-60
2022/01/27 23:02:53;;;;;;;6.75;1.20;;;5.60;99.90;;;;;;10206655;28;84862;-57
2022/01/27 23:07:54;;;;;;;2.38;0.88;;;5.50;99.90;;;;;;10208212;28;85376;-58
2022/01/27 23:13:03;;;;;;;8.65;1.25;;;5.60;88.10;;;;;;10207885;28;84755;-58
2022/01/27 23:23:38;;;;;;;2.80;0.43;;;5.50;48.00;;;;;;10184951;28;84180;-60
2022/01/27 23:28:44;;;;;;;0.45;0.17;;;5.50;46.60;;;;;;10206152;28;87012;-60
2022/01/27 23:33:47;;;;;;;3.08;0.47;;;5.40;1.00;;;;;;10209710;28;84823;-59
2022/01/27 23:39:05;;;;;;;4.22;1.00;;;5.40;12.30;;;;;;10208004;28;84758;-59
2022/01/27 23:49:55;;;;;;;2.40;0.25;;;5.40;14.70;;;;;;10189766;28;84165;-59
